Terminal Aerodrome Forecast
Issued by NWS

Home | Current Version | Previous Version | Text Only | Print | Product List | Glossary On
Versions: 1 2 3 4 5 6 7 8 9 10 11 12 13 14 15 16 17 18 19 20 21
000
FTUS44 KHGX 211413 AAA
TAFUTS
TAF AMD
KUTS 211413Z 2114/2212 00000KT P6SM OVC014
      TEMPO 2114/2116 SCT014 BKN050
     FM211600 17005KT P6SM SCT025 BKN250
     FM220000 04006KT P6SM SCT045 BKN250
     FM220800 36006KT P6SM BKN025=

USA.gov is the U.S. government's official web portal to all federal, state and local government web resources and services.